sensor_id;sensor_type;location;lat;lon;timestamp;P1;durP1;ratioP1;P2;durP2;ratioP2
74471;SDS011;62920;53.572;10.050;2022-09-09T00:02:01;40.63;;;21.17;;
74471;SDS011;62920;53.572;10.050;2022-09-09T00:09:25;37.22;;;18.80;;
74471;SDS011;62920;53.572;10.050;2022-09-09T00:11:54;35.35;;;18.92;;
74471;SDS011;62920;53.572;10.050;2022-09-09T00:14:47;48.92;;;21.23;;
74471;SDS011;62920;53.572;10.050;2022-09-09T00:19:59;41.97;;;20.15;;
74471;SDS011;62920;53.572;10.050;2022-09-09T00:22:30;45.05;;;21.23;;
74471;SDS011;62920;53.572;10.050;2022-09-09T00:25:19;38.05;;;20.08;;
74471;SDS011;62920;53.572;10.050;2022-09-09T00:27:49;43.85;;;21.23;;
74471;SDS011;62920;53.572;10.050;2022-09-09T00:33:01;38.60;;;19.75;;
74471;SDS011;62920;53.572;10.050;2022-09-09T00:35:37;48.80;;;20.25;;
74471;SDS011;62920;53.572;10.050;2022-09-09T00:38:12;48.60;;;19.75;;
74471;SDS011;62920;53.572;10.050;2022-09-09T00:40:53;42.63;;;20.90;;
74471;SDS011;62920;53.572;10.050;2022-09-09T00:43:41;46.92;;;19.75;;
74471;SDS011;62920;53.572;10.050;2022-09-09T00:48:45;58.50;;;18.50;;
74471;SDS011;62920;53.572;10.050;2022-09-09T00:51:43;67.22;;;18.23;;
74471;SDS011;62920;53.572;10.050;2022-09-09T00:55:13;36.83;;;17.27;;
74471;SDS011;62920;53.572;10.050;2022-09-09T01:05:15;34.47;;;15.90;;
74471;SDS011;62920;53.572;10.050;2022-09-09T01:07:47;33.33;;;15.85;;
74471;SDS011;62920;53.572;10.050;2022-09-09T01:10:17;67.43;;;16.23;;
74471;SDS011;62920;53.572;10.050;2022-09-09T01:12:50;30.98;;;15.23;;
74471;SDS011;62920;53.572;10.050;2022-09-09T01:15:18;38.45;;;14.82;;
74471;SDS011;62920;53.572;10.050;2022-09-09T01:20:25;30.15;;;14.50;;
74471;SDS011;62920;53.572;10.050;2022-09-09T01:28:15;32.03;;;14.77;;
74471;SDS011;62920;53.572;10.050;2022-09-09T01:30:43;45.00;;;15.43;;
74471;SDS011;62920;53.572;10.050;2022-09-09T01:33:10;38.72;;;14.93;;
74471;SDS011;62920;53.572;10.050;2022-09-09T01:38:13;25.00;;;14.13;;
74471;SDS011;62920;53.572;10.050;2022-09-09T01:40:39;25.33;;;13.55;;
74471;SDS011;62920;53.572;10.050;2022-09-09T01:43:04;28.13;;;14.85;;
74471;SDS011;62920;53.572;10.050;2022-09-09T01:45:31;26.98;;;13.93;;
74471;SDS011;62920;53.572;10.050;2022-09-09T01:47:57;25.92;;;14.13;;
74471;SDS011;62920;53.572;10.050;2022-09-09T01:50:23;33.28;;;13.98;;
74471;SDS011;62920;53.572;10.050;2022-09-09T01:52:50;27.98;;;14.63;;
74471;SDS011;62920;53.572;10.050;2022-09-09T01:55:19;58.47;;;14.88;;
74471;SDS011;62920;53.572;10.050;2022-09-09T01:58:16;33.92;;;15.25;;
74471;SDS011;62920;53.572;10.050;2022-09-09T02:00:37;31.35;;;14.43;;
74471;SDS011;62920;53.572;10.050;2022-09-09T02:06:47;31.60;;;14.68;;
74471;SDS011;62920;53.572;10.050;2022-09-09T02:08:49;28.33;;;13.40;;
74471;SDS011;62920;53.572;10.050;2022-09-09T02:11:16;30.55;;;14.23;;
74471;SDS011;62920;53.572;10.050;2022-09-09T02:13:44;30.55;;;14.32;;
74471;SDS011;62920;53.572;10.050;2022-09-09T02:21:20;25.67;;;13.75;;
74471;SDS011;62920;53.572;10.050;2022-09-09T02:23:47;36.10;;;14.65;;
74471;SDS011;62920;53.572;10.050;2022-09-09T02:26:17;33.40;;;14.88;;
74471;SDS011;62920;53.572;10.050;2022-09-09T02:28:45;26.58;;;14.52;;
74471;SDS011;62920;53.572;10.050;2022-09-09T02:31:11;30.75;;;15.32;;
74471;SDS011;62920;53.572;10.050;2022-09-09T02:33:40;39.83;;;15.57;;
74471;SDS011;62920;53.572;10.050;2022-09-09T02:36:08;27.05;;;14.75;;
74471;SDS011;62920;53.572;10.050;2022-09-09T02:38:36;32.58;;;13.88;;
74471;SDS011;62920;53.572;10.050;2022-09-09T02:41:04;25.92;;;12.75;;
74471;SDS011;62920;53.572;10.050;2022-09-09T02:46:13;24.77;;;12.55;;
74471;SDS011;62920;53.572;10.050;2022-09-09T02:48:55;27.77;;;12.57;;
74471;SDS011;62920;53.572;10.050;2022-09-09T02:51:46;26.25;;;13.27;;
74471;SDS011;62920;53.572;10.050;2022-09-09T02:54:30;28.80;;;13.52;;
74471;SDS011;62920;53.572;10.050;2022-09-09T02:57:07;32.30;;;13.05;;
74471;SDS011;62920;53.572;10.050;2022-09-09T02:59:34;25.17;;;12.23;;
74471;SDS011;62920;53.572;10.050;2022-09-09T03:02:00;21.73;;;12.30;;
74471;SDS011;62920;53.572;10.050;2022-09-09T03:04:26;23.35;;;12.10;;
74471;SDS011;62920;53.572;10.050;2022-09-09T03:06:51;21.50;;;12.77;;
74471;SDS011;62920;53.572;10.050;2022-09-09T03:09:17;25.70;;;11.13;;
74471;SDS011;62920;53.572;10.050;2022-09-09T03:11:42;20.15;;;11.60;;
74471;SDS011;62920;53.572;10.050;2022-09-09T03:14:08;22.33;;;11.50;;
74471;SDS011;62920;53.572;10.050;2022-09-09T03:16:33;22.77;;;12.40;;
74471;SDS011;62920;53.572;10.050;2022-09-09T03:18:59;23.50;;;10.77;;
74471;SDS011;62920;53.572;10.050;2022-09-09T03:21:25;21.58;;;12.00;;
74471;SDS011;62920;53.572;10.050;2022-09-09T03:23:50;20.20;;;12.07;;
74471;SDS011;62920;53.572;10.050;2022-09-09T03:26:15;19.13;;;11.10;;
74471;SDS011;62920;53.572;10.050;2022-09-09T03:28:41;20.25;;;11.90;;
74471;SDS011;62920;53.572;10.050;2022-09-09T03:31:07;27.40;;;11.60;;
74471;SDS011;62920;53.572;10.050;2022-09-09T03:33:35;19.73;;;10.50;;
74471;SDS011;62920;53.572;10.050;2022-09-09T03:36:02;22.55;;;10.82;;
74471;SDS011;62920;53.572;10.050;2022-09-09T03:38:27;19.75;;;10.95;;
74471;SDS011;62920;53.572;10.050;2022-09-09T03:40:54;34.80;;;11.85;;
74471;SDS011;62920;53.572;10.050;2022-09-09T03:43:22;22.42;;;11.63;;
74471;SDS011;62920;53.572;10.050;2022-09-09T03:45:50;17.15;;;10.52;;
74471;SDS011;62920;53.572;10.050;2022-09-09T03:48:16;20.55;;;10.38;;
74471;SDS011;62920;53.572;10.050;2022-09-09T03:50:45;20.52;;;11.00;;
74471;SDS011;62920;53.572;10.050;2022-09-09T03:53:12;18.30;;;10.88;;
74471;SDS011;62920;53.572;10.050;2022-09-09T03:55:38;34.90;;;11.10;;
74471;SDS011;62920;53.572;10.050;2022-09-09T03:58:06;19.67;;;10.32;;
74471;SDS011;62920;53.572;10.050;2022-09-09T04:00:32;18.55;;;10.88;;
74471;SDS011;62920;53.572;10.050;2022-09-09T04:02:58;27.27;;;10.40;;
74471;SDS011;62920;53.572;10.050;2022-09-09T04:05:23;49.13;;;11.20;;
74471;SDS011;62920;53.572;10.050;2022-09-09T04:07:49;31.90;;;10.75;;
74471;SDS011;62920;53.572;10.050;2022-09-09T04:10:16;50.08;;;11.80;;
74471;SDS011;62920;53.572;10.050;2022-09-09T04:12:41;23.70;;;11.13;;
74471;SDS011;62920;53.572;10.050;2022-09-09T04:15:07;18.05;;;10.27;;
74471;SDS011;62920;53.572;10.050;2022-09-09T04:17:33;19.25;;;11.52;;
74471;SDS011;62920;53.572;10.050;2022-09-09T04:19:58;24.10;;;10.52;;
74471;SDS011;62920;53.572;10.050;2022-09-09T04:22:23;30.67;;;10.60;;
74471;SDS011;62920;53.572;10.050;2022-09-09T04:24:49;16.75;;;10.95;;
74471;SDS011;62920;53.572;10.050;2022-09-09T04:27:14;19.30;;;10.15;;
74471;SDS011;62920;53.572;10.050;2022-09-09T04:29:40;17.10;;;10.02;;
74471;SDS011;62920;53.572;10.050;2022-09-09T04:32:05;27.15;;;10.45;;
74471;SDS011;62920;53.572;10.050;2022-09-09T04:34:30;19.65;;;11.25;;
74471;SDS011;62920;53.572;10.050;2022-09-09T04:36:56;14.90;;;9.63;;
74471;SDS011;62920;53.572;10.050;2022-09-09T04:39:21;16.65;;;10.23;;
74471;SDS011;62920;53.572;10.050;2022-09-09T04:41:47;17.48;;;10.43;;
74471;SDS011;62920;53.572;10.050;2022-09-09T04:44:12;15.40;;;9.45;;
74471;SDS011;62920;53.572;10.050;2022-09-09T04:46:38;16.58;;;10.38;;
74471;SDS011;62920;53.572;10.050;2022-09-09T04:49:03;17.75;;;10.05;;
74471;SDS011;62920;53.572;10.050;2022-09-09T04:51:29;17.98;;;10.55;;
74471;SDS011;62920;53.572;10.050;2022-09-09T04:53:56;16.95;;;10.82;;
74471;SDS011;62920;53.572;10.050;2022-09-09T04:56:21;15.07;;;10.13;;
74471;SDS011;62920;53.572;10.050;2022-09-09T04:58:47;16.63;;;9.52;;
74471;SDS011;62920;53.572;10.050;2022-09-09T05:01:13;16.27;;;9.50;;
74471;SDS011;62920;53.572;10.050;2022-09-09T05:03:43;16.92;;;9.75;;
74471;SDS011;62920;53.572;10.050;2022-09-09T05:06:11;17.08;;;9.80;;
74471;SDS011;62920;53.572;10.050;2022-09-09T05:08:41;14.45;;;9.15;;
74471;SDS011;62920;53.572;10.050;2022-09-09T05:13:41;18.10;;;9.43;;
74471;SDS011;62920;53.572;10.050;2022-09-09T05:16:07;16.42;;;9.45;;
74471;SDS011;62920;53.572;10.050;2022-09-09T05:18:35;15.93;;;9.05;;
74471;SDS011;62920;53.572;10.050;2022-09-09T05:21:00;13.60;;;8.30;;
74471;SDS011;62920;53.572;10.050;2022-09-09T05:23:26;16.33;;;10.07;;
74471;SDS011;62920;53.572;10.050;2022-09-09T05:25:55;15.05;;;9.30;;
74471;SDS011;62920;53.572;10.050;2022-09-09T05:28:22;14.43;;;9.30;;
74471;SDS011;62920;53.572;10.050;2022-09-09T05:30:58;15.45;;;9.18;;
74471;SDS011;62920;53.572;10.050;2022-09-09T05:33:25;15.43;;;8.88;;
74471;SDS011;62920;53.572;10.050;2022-09-09T05:35:55;15.45;;;9.27;;
74471;SDS011;62920;53.572;10.050;2022-09-09T05:38:30;15.18;;;8.85;;
74471;SDS011;62920;53.572;10.050;2022-09-09T05:40:57;15.60;;;9.55;;
74471;SDS011;62920;53.572;10.050;2022-09-09T05:43:23;17.58;;;10.40;;
74471;SDS011;62920;53.572;10.050;2022-09-09T05:45:58;15.13;;;8.80;;
74471;SDS011;62920;53.572;10.050;2022-09-09T05:48:29;16.08;;;9.95;;
74471;SDS011;62920;53.572;10.050;2022-09-09T05:50:58;14.98;;;8.95;;
74471;SDS011;62920;53.572;10.050;2022-09-09T05:53:24;15.60;;;10.23;;
74471;SDS011;62920;53.572;10.050;2022-09-09T05:55:50;14.23;;;8.88;;
74471;SDS011;62920;53.572;10.050;2022-09-09T05:58:22;16.98;;;8.98;;
74471;SDS011;62920;53.572;10.050;2022-09-09T06:00:48;14.25;;;7.05;;
74471;SDS011;62920;53.572;10.050;2022-09-09T06:03:13;13.23;;;7.28;;
74471;SDS011;62920;53.572;10.050;2022-09-09T06:05:38;12.35;;;7.75;;
74471;SDS011;62920;53.572;10.050;2022-09-09T06:08:04;12.55;;;7.25;;
74471;SDS011;62920;53.572;10.050;2022-09-09T06:10:29;11.98;;;7.68;;
74471;SDS011;62920;53.572;10.050;2022-09-09T06:12:54;14.07;;;7.75;;
74471;SDS011;62920;53.572;10.050;2022-09-09T06:15:20;11.43;;;7.28;;
74471;SDS011;62920;53.572;10.050;2022-09-09T06:17:45;12.77;;;7.40;;
74471;SDS011;62920;53.572;10.050;2022-09-09T06:20:11;13.55;;;6.72;;
74471;SDS011;62920;53.572;10.050;2022-09-09T06:22:39;11.13;;;7.00;;
74471;SDS011;62920;53.572;10.050;2022-09-09T06:25:05;10.50;;;6.47;;
74471;SDS011;62920;53.572;10.050;2022-09-09T06:27:32;11.63;;;6.63;;
74471;SDS011;62920;53.572;10.050;2022-09-09T06:29:58;13.52;;;6.38;;
74471;SDS011;62920;53.572;10.050;2022-09-09T06:32:23;10.63;;;5.82;;
74471;SDS011;62920;53.572;10.050;2022-09-09T06:34:48;11.90;;;5.60;;
74471;SDS011;62920;53.572;10.050;2022-09-09T06:37:14;10.32;;;5.85;;
74471;SDS011;62920;53.572;10.050;2022-09-09T06:39:40;11.07;;;5.28;;
74471;SDS011;62920;53.572;10.050;2022-09-09T06:42:05;9.43;;;5.40;;
74471;SDS011;62920;53.572;10.050;2022-09-09T06:44:33;9.35;;;5.05;;
74471;SDS011;62920;53.572;10.050;2022-09-09T06:46:58;11.38;;;5.10;;
74471;SDS011;62920;53.572;10.050;2022-09-09T06:49:24;10.20;;;5.07;;
74471;SDS011;62920;53.572;10.050;2022-09-09T06:51:49;8.68;;;5.00;;
74471;SDS011;62920;53.572;10.050;2022-09-09T06:54:17;7.38;;;4.93;;
74471;SDS011;62920;53.572;10.050;2022-09-09T06:56:43;6.57;;;4.25;;
74471;SDS011;62920;53.572;10.050;2022-09-09T06:59:10;7.60;;;4.55;;
74471;SDS011;62920;53.572;10.050;2022-09-09T07:01:37;10.18;;;4.97;;
74471;SDS011;62920;53.572;10.050;2022-09-09T07:04:06;11.00;;;4.97;;
74471;SDS011;62920;53.572;10.050;2022-09-09T07:06:43;11.75;;;4.70;;
74471;SDS011;62920;53.572;10.050;2022-09-09T07:09:10;11.10;;;4.13;;
74471;SDS011;62920;53.572;10.050;2022-09-09T07:11:40;8.07;;;4.03;;
74471;SDS011;62920;53.572;10.050;2022-09-09T07:14:07;8.55;;;4.00;;
74471;SDS011;62920;53.572;10.050;2022-09-09T07:16:34;7.88;;;3.97;;
74471;SDS011;62920;53.572;10.050;2022-09-09T07:19:02;6.65;;;3.80;;
74471;SDS011;62920;53.572;10.050;2022-09-09T07:21:28;7.57;;;3.88;;
74471;SDS011;62920;53.572;10.050;2022-09-09T07:23:55;7.95;;;4.00;;
74471;SDS011;62920;53.572;10.050;2022-09-09T07:26:22;6.45;;;3.83;;
74471;SDS011;62920;53.572;10.050;2022-09-09T07:28:48;9.77;;;4.65;;
74471;SDS011;62920;53.572;10.050;2022-09-09T07:31:47;7.28;;;4.13;;
74471;SDS011;62920;53.572;10.050;2022-09-09T07:34:05;9.35;;;3.65;;
74471;SDS011;62920;53.572;10.050;2022-09-09T07:36:32;7.90;;;3.50;;
74471;SDS011;62920;53.572;10.050;2022-09-09T07:39:00;7.30;;;3.78;;
74471;SDS011;62920;53.572;10.050;2022-09-09T07:41:32;9.98;;;4.13;;
74471;SDS011;62920;53.572;10.050;2022-09-09T07:46:28;7.00;;;3.25;;
74471;SDS011;62920;53.572;10.050;2022-09-09T07:48:54;12.93;;;3.80;;
74471;SDS011;62920;53.572;10.050;2022-09-09T07:51:25;7.22;;;3.30;;
74471;SDS011;62920;53.572;10.050;2022-09-09T07:53:53;6.88;;;3.63;;
74471;SDS011;62920;53.572;10.050;2022-09-09T07:56:20;6.60;;;3.28;;
74471;SDS011;62920;53.572;10.050;2022-09-09T07:58:49;9.10;;;3.60;;
74471;SDS011;62920;53.572;10.050;2022-09-09T08:01:17;4.97;;;3.10;;
74471;SDS011;62920;53.572;10.050;2022-09-09T08:03:52;8.95;;;3.17;;
74471;SDS011;62920;53.572;10.050;2022-09-09T08:06:28;8.70;;;3.20;;
74471;SDS011;62920;53.572;10.050;2022-09-09T08:08:55;6.43;;;3.53;;
74471;SDS011;62920;53.572;10.050;2022-09-09T08:11:21;8.23;;;3.85;;
74471;SDS011;62920;53.572;10.050;2022-09-09T08:13:51;8.32;;;3.33;;
74471;SDS011;62920;53.572;10.050;2022-09-09T08:16:18;6.95;;;3.50;;
74471;SDS011;62920;53.572;10.050;2022-09-09T08:18:48;7.93;;;3.60;;
74471;SDS011;62920;53.572;10.050;2022-09-09T08:21:24;6.60;;;3.33;;
74471;SDS011;62920;53.572;10.050;2022-09-09T08:23:55;6.47;;;3.30;;
74471;SDS011;62920;53.572;10.050;2022-09-09T08:26:22;7.35;;;3.72;;
74471;SDS011;62920;53.572;10.050;2022-09-09T08:28:49;7.07;;;3.45;;
74471;SDS011;62920;53.572;10.050;2022-09-09T08:31:17;7.95;;;3.20;;
74471;SDS011;62920;53.572;10.050;2022-09-09T08:33:47;7.28;;;3.25;;
74471;SDS011;62920;53.572;10.050;2022-09-09T08:36:16;9.50;;;3.35;;
74471;SDS011;62920;53.572;10.050;2022-09-09T08:38:50;5.00;;;3.47;;
74471;SDS011;62920;53.572;10.050;2022-09-09T08:45:14;6.35;;;3.20;;
74471;SDS011;62920;53.572;10.050;2022-09-09T08:53:03;6.82;;;3.40;;
74471;SDS011;62920;53.572;10.050;2022-09-09T08:58:11;7.22;;;2.97;;
74471;SDS011;62920;53.572;10.050;2022-09-09T09:06:31;7.68;;;3.05;;
74471;SDS011;62920;53.572;10.050;2022-09-09T09:11:51;6.30;;;2.90;;
74471;SDS011;62920;53.572;10.050;2022-09-09T09:14:26;7.53;;;2.40;;
74471;SDS011;62920;53.572;10.050;2022-09-09T09:16:54;6.65;;;2.60;;
74471;SDS011;62920;53.572;10.050;2022-09-09T09:19:22;9.10;;;4.22;;
74471;SDS011;62920;53.572;10.050;2022-09-09T09:22:12;4.72;;;2.60;;
74471;SDS011;62920;53.572;10.050;2022-09-09T09:25:00;8.05;;;2.63;;
74471;SDS011;62920;53.572;10.050;2022-09-09T09:27:40;5.35;;;2.50;;
74471;SDS011;62920;53.572;10.050;2022-09-09T09:30:15;7.25;;;2.40;;
74471;SDS011;62920;53.572;10.050;2022-09-09T09:32:43;4.70;;;2.05;;
74471;SDS011;62920;53.572;10.050;2022-09-09T09:35:18;5.93;;;2.15;;
74471;SDS011;62920;53.572;10.050;2022-09-09T09:37:44;6.85;;;2.15;;
74471;SDS011;62920;53.572;10.050;2022-09-09T09:40:10;7.00;;;1.83;;
74471;SDS011;62920;53.572;10.050;2022-09-09T09:42:38;5.53;;;1.73;;
74471;SDS011;62920;53.572;10.050;2022-09-09T09:45:35;4.85;;;1.83;;
74471;SDS011;62920;53.572;10.050;2022-09-09T09:48:09;7.75;;;2.25;;
74471;SDS011;62920;53.572;10.050;2022-09-09T09:50:45;5.00;;;2.30;;
74471;SDS011;62920;53.572;10.050;2022-09-09T09:53:19;4.82;;;1.95;;
74471;SDS011;62920;53.572;10.050;2022-09-09T09:55:55;3.60;;;1.65;;
74471;SDS011;62920;53.572;10.050;2022-09-09T09:58:23;6.93;;;1.73;;
74471;SDS011;62920;53.572;10.050;2022-09-09T10:00:52;3.75;;;1.58;;
74471;SDS011;62920;53.572;10.050;2022-09-09T10:03:22;4.05;;;2.00;;
74471;SDS011;62920;53.572;10.050;2022-09-09T10:05:53;4.72;;;2.00;;
74471;SDS011;62920;53.572;10.050;2022-09-09T10:08:19;4.38;;;2.38;;
74471;SDS011;62920;53.572;10.050;2022-09-09T10:13:29;6.55;;;1.90;;
74471;SDS011;62920;53.572;10.050;2022-09-09T10:19:04;5.80;;;1.60;;
74471;SDS011;62920;53.572;10.050;2022-09-09T10:26:46;4.15;;;1.45;;
74471;SDS011;62920;53.572;10.050;2022-09-09T10:38:11;5.05;;;1.40;;
74471;SDS011;62920;53.572;10.050;2022-09-09T10:49:01;5.50;;;1.27;;
74471;SDS011;62920;53.572;10.050;2022-09-09T10:56:32;4.38;;;1.25;;
74471;SDS011;62920;53.572;10.050;2022-09-09T10:59:04;3.72;;;0.93;;
74471;SDS011;62920;53.572;10.050;2022-09-09T11:04:27;4.45;;;1.05;;
74471;SDS011;62920;53.572;10.050;2022-09-09T11:06:57;3.13;;;0.90;;
74471;SDS011;62920;53.572;10.050;2022-09-09T11:09:26;2.92;;;0.80;;
74471;SDS011;62920;53.572;10.050;2022-09-09T11:11:54;3.13;;;1.00;;
74471;SDS011;62920;53.572;10.050;2022-09-09T11:14:29;3.40;;;1.17;;
74471;SDS011;62920;53.572;10.050;2022-09-09T11:16:59;2.53;;;0.80;;
74471;SDS011;62920;53.572;10.050;2022-09-09T11:19:34;4.05;;;0.95;;
74471;SDS011;62920;53.572;10.050;2022-09-09T11:22:04;3.72;;;1.00;;
74471;SDS011;62920;53.572;10.050;2022-09-09T11:32:54;5.53;;;2.08;;
74471;SDS011;62920;53.572;10.050;2022-09-09T11:35:38;3.50;;;1.13;;
74471;SDS011;62920;53.572;10.050;2022-09-09T11:41:32;3.65;;;1.33;;
74471;SDS011;62920;53.572;10.050;2022-09-09T11:43:59;3.28;;;1.00;;
74471;SDS011;62920;53.572;10.050;2022-09-09T11:46:31;3.65;;;0.93;;
74471;SDS011;62920;53.572;10.050;2022-09-09T11:49:02;6.43;;;1.15;;
74471;SDS011;62920;53.572;10.050;2022-09-09T11:51:30;4.13;;;0.93;;
74471;SDS011;62920;53.572;10.050;2022-09-09T11:56:48;3.42;;;0.93;;
74471;SDS011;62920;53.572;10.050;2022-09-09T11:59:26;3.10;;;1.00;;
74471;SDS011;62920;53.572;10.050;2022-09-09T12:09:47;4.72;;;1.00;;
74471;SDS011;62920;53.572;10.050;2022-09-09T12:17:24;3.72;;;0.90;;
74471;SDS011;62920;53.572;10.050;2022-09-09T12:20:01;4.22;;;1.05;;
74471;SDS011;62920;53.572;10.050;2022-09-09T12:33:33;4.32;;;1.40;;
74471;SDS011;62920;53.572;10.050;2022-09-09T12:35:59;4.95;;;1.20;;
74471;SDS011;62920;53.572;10.050;2022-09-09T12:38:34;5.45;;;1.30;;
74471;SDS011;62920;53.572;10.050;2022-09-09T12:41:01;5.97;;;1.05;;
74471;SDS011;62920;53.572;10.050;2022-09-09T12:43:27;6.38;;;1.30;;
74471;SDS011;62920;53.572;10.050;2022-09-09T12:45:54;4.45;;;1.15;;
74471;SDS011;62920;53.572;10.050;2022-09-09T12:48:24;3.33;;;1.30;;
74471;SDS011;62920;53.572;10.050;2022-09-09T12:50:55;4.65;;;1.00;;
74471;SDS011;62920;53.572;10.050;2022-09-09T12:53:31;6.70;;;1.17;;
74471;SDS011;62920;53.572;10.050;2022-09-09T12:58:26;4.05;;;1.23;;
74471;SDS011;62920;53.572;10.050;2022-09-09T13:00:54;3.88;;;1.60;;
74471;SDS011;62920;53.572;10.050;2022-09-09T13:03:21;5.45;;;1.35;;
74471;SDS011;62920;53.572;10.050;2022-09-09T13:05:47;5.22;;;1.65;;
74471;SDS011;62920;53.572;10.050;2022-09-09T13:10:55;5.82;;;1.90;;
74471;SDS011;62920;53.572;10.050;2022-09-09T13:13:28;4.35;;;1.73;;
74471;SDS011;62920;53.572;10.050;2022-09-09T13:16:01;5.43;;;1.73;;
74471;SDS011;62920;53.572;10.050;2022-09-09T13:20:58;5.45;;;1.88;;
74471;SDS011;62920;53.572;10.050;2022-09-09T13:23:25;5.72;;;1.63;;
74471;SDS011;62920;53.572;10.050;2022-09-09T13:25:55;6.05;;;1.42;;
74471;SDS011;62920;53.572;10.050;2022-09-09T13:28:22;6.45;;;1.73;;
74471;SDS011;62920;53.572;10.050;2022-09-09T13:31:24;4.90;;;1.60;;
74471;SDS011;62920;53.572;10.050;2022-09-09T13:33:45;4.50;;;1.65;;
74471;SDS011;62920;53.572;10.050;2022-09-09T13:36:11;4.72;;;1.98;;
74471;SDS011;62920;53.572;10.050;2022-09-09T13:38:38;6.63;;;1.88;;
74471;SDS011;62920;53.572;10.050;2022-09-09T13:41:24;4.63;;;1.90;;
74471;SDS011;62920;53.572;10.050;2022-09-09T13:43:51;4.90;;;2.20;;
74471;SDS011;62920;53.572;10.050;2022-09-09T13:46:36;7.30;;;2.50;;
74471;SDS011;62920;53.572;10.050;2022-09-09T13:49:23;7.25;;;2.40;;
74471;SDS011;62920;53.572;10.050;2022-09-09T13:51:49;4.85;;;2.00;;
74471;SDS011;62920;53.572;10.050;2022-09-09T13:54:18;4.35;;;1.83;;
74471;SDS011;62920;53.572;10.050;2022-09-09T13:56:44;6.03;;;2.33;;
74471;SDS011;62920;53.572;10.050;2022-09-09T13:59:17;6.82;;;2.45;;
74471;SDS011;62920;53.572;10.050;2022-09-09T14:01:47;6.35;;;2.47;;
74471;SDS011;62920;53.572;10.050;2022-09-09T14:04:14;13.48;;;3.20;;
74471;SDS011;62920;53.572;10.050;2022-09-09T14:06:40;7.10;;;2.35;;
74471;SDS011;62920;53.572;10.050;2022-09-09T14:09:06;5.45;;;2.38;;
74471;SDS011;62920;53.572;10.050;2022-09-09T14:11:33;6.75;;;2.30;;
74471;SDS011;62920;53.572;10.050;2022-09-09T14:13:58;6.90;;;2.25;;
74471;SDS011;62920;53.572;10.050;2022-09-09T14:16:25;5.07;;;2.63;;
74471;SDS011;62920;53.572;10.050;2022-09-09T14:18:52;7.55;;;2.67;;
74471;SDS011;62920;53.572;10.050;2022-09-09T14:21:18;5.75;;;3.08;;
74471;SDS011;62920;53.572;10.050;2022-09-09T14:23:43;5.18;;;2.83;;
74471;SDS011;62920;53.572;10.050;2022-09-09T14:26:09;5.25;;;2.47;;
74471;SDS011;62920;53.572;10.050;2022-09-09T14:28:35;6.15;;;2.65;;
74471;SDS011;62920;53.572;10.050;2022-09-09T14:31:02;5.15;;;2.03;;
74471;SDS011;62920;53.572;10.050;2022-09-09T14:33:28;6.40;;;2.58;;
74471;SDS011;62920;53.572;10.050;2022-09-09T14:35:57;5.53;;;2.13;;
74471;SDS011;62920;53.572;10.050;2022-09-09T14:38:24;5.68;;;1.55;;
74471;SDS011;62920;53.572;10.050;2022-09-09T14:40:49;4.75;;;1.35;;
74471;SDS011;62920;53.572;10.050;2022-09-09T14:43:15;2.97;;;1.10;;
74471;SDS011;62920;53.572;10.050;2022-09-09T14:45:40;2.80;;;1.13;;
74471;SDS011;62920;53.572;10.050;2022-09-09T14:48:05;4.78;;;1.60;;
74471;SDS011;62920;53.572;10.050;2022-09-09T14:50:31;6.82;;;1.58;;
74471;SDS011;62920;53.572;10.050;2022-09-09T14:52:56;4.72;;;1.42;;
74471;SDS011;62920;53.572;10.050;2022-09-09T14:55:22;4.20;;;1.42;;
74471;SDS011;62920;53.572;10.050;2022-09-09T14:57:47;4.78;;;1.70;;
74471;SDS011;62920;53.572;10.050;2022-09-09T15:00:13;7.35;;;1.85;;
74471;SDS011;62920;53.572;10.050;2022-09-09T15:02:38;5.38;;;2.15;;
74471;SDS011;62920;53.572;10.050;2022-09-09T15:05:04;7.28;;;1.85;;
74471;SDS011;62920;53.572;10.050;2022-09-09T15:07:30;4.72;;;2.30;;
74471;SDS011;62920;53.572;10.050;2022-09-09T15:09:57;7.70;;;2.42;;
74471;SDS011;62920;53.572;10.050;2022-09-09T15:12:23;5.65;;;2.55;;
74471;SDS011;62920;53.572;10.050;2022-09-09T15:17:15;4.75;;;2.08;;
74471;SDS011;62920;53.572;10.050;2022-09-09T15:19:41;7.95;;;2.67;;
74471;SDS011;62920;53.572;10.050;2022-09-09T15:22:07;5.15;;;2.10;;
74471;SDS011;62920;53.572;10.050;2022-09-09T15:24:33;5.72;;;2.10;;
74471;SDS011;62920;53.572;10.050;2022-09-09T15:26:59;5.40;;;1.80;;
74471;SDS011;62920;53.572;10.050;2022-09-09T15:29:25;2.95;;;1.35;;
74471;SDS011;62920;53.572;10.050;2022-09-09T15:31:50;5.30;;;1.70;;
74471;SDS011;62920;53.572;10.050;2022-09-09T15:34:15;3.72;;;1.60;;
74471;SDS011;62920;53.572;10.050;2022-09-09T15:36:42;5.45;;;1.70;;
74471;SDS011;62920;53.572;10.050;2022-09-09T15:39:10;4.30;;;1.40;;
74471;SDS011;62920;53.572;10.050;2022-09-09T15:41:40;6.25;;;1.80;;
74471;SDS011;62920;53.572;10.050;2022-09-09T15:44:09;4.13;;;1.40;;
74471;SDS011;62920;53.572;10.050;2022-09-09T15:46:40;4.50;;;1.40;;
74471;SDS011;62920;53.572;10.050;2022-09-09T15:49:08;4.47;;;1.00;;
74471;SDS011;62920;53.572;10.050;2022-09-09T15:51:37;4.90;;;1.45;;
74471;SDS011;62920;53.572;10.050;2022-09-09T15:54:03;5.43;;;1.42;;
74471;SDS011;62920;53.572;10.050;2022-09-09T15:56:29;5.28;;;1.48;;
74471;SDS011;62920;53.572;10.050;2022-09-09T15:58:58;5.15;;;1.70;;
74471;SDS011;62920;53.572;10.050;2022-09-09T16:01:24;4.47;;;1.80;;
74471;SDS011;62920;53.572;10.050;2022-09-09T16:03:51;2.78;;;1.40;;
74471;SDS011;62920;53.572;10.050;2022-09-09T16:06:17;3.78;;;1.60;;
74471;SDS011;62920;53.572;10.050;2022-09-09T16:08:44;4.88;;;1.55;;
74471;SDS011;62920;53.572;10.050;2022-09-09T16:13:39;6.68;;;1.70;;
74471;SDS011;62920;53.572;10.050;2022-09-09T16:16:05;5.95;;;1.58;;
74471;SDS011;62920;53.572;10.050;2022-09-09T16:18:35;6.32;;;1.35;;
74471;SDS011;62920;53.572;10.050;2022-09-09T16:21:01;3.58;;;1.50;;
74471;SDS011;62920;53.572;10.050;2022-09-09T16:23:26;3.70;;;1.58;;
74471;SDS011;62920;53.572;10.050;2022-09-09T16:25:53;5.78;;;1.40;;
74471;SDS011;62920;53.572;10.050;2022-09-09T16:28:19;5.28;;;1.52;;
74471;SDS011;62920;53.572;10.050;2022-09-09T16:30:45;5.30;;;1.55;;
74471;SDS011;62920;53.572;10.050;2022-09-09T16:33:10;4.95;;;1.52;;
74471;SDS011;62920;53.572;10.050;2022-09-09T16:35:36;4.60;;;1.30;;
74471;SDS011;62920;53.572;10.050;2022-09-09T16:38:02;4.07;;;1.40;;
74471;SDS011;62920;53.572;10.050;2022-09-09T16:40:27;3.65;;;1.30;;
74471;SDS011;62920;53.572;10.050;2022-09-09T16:42:53;5.70;;;1.20;;
74471;SDS011;62920;53.572;10.050;2022-09-09T16:45:18;4.22;;;1.27;;
74471;SDS011;62920;53.572;10.050;2022-09-09T16:47:43;3.90;;;1.13;;
74471;SDS011;62920;53.572;10.050;2022-09-09T16:50:09;5.78;;;1.25;;
74471;SDS011;62920;53.572;10.050;2022-09-09T16:52:34;4.20;;;1.13;;
74471;SDS011;62920;53.572;10.050;2022-09-09T16:55:00;5.28;;;1.30;;
74471;SDS011;62920;53.572;10.050;2022-09-09T16:57:25;5.38;;;1.35;;
74471;SDS011;62920;53.572;10.050;2022-09-09T16:59:50;3.67;;;1.25;;
74471;SDS011;62920;53.572;10.050;2022-09-09T17:02:19;4.55;;;1.20;;
74471;SDS011;62920;53.572;10.050;2022-09-09T17:04:44;3.60;;;1.20;;
74471;SDS011;62920;53.572;10.050;2022-09-09T17:07:09;4.05;;;1.20;;
74471;SDS011;62920;53.572;10.050;2022-09-09T17:09:35;5.22;;;1.40;;
74471;SDS011;62920;53.572;10.050;2022-09-09T17:12:00;2.63;;;1.00;;